sensor_id;sensor_type;location;lat;lon;timestamp;P1;durP1;ratioP1;P2;durP2;ratioP2
9256;SDS011;4665;51.368;6.782;2022-12-18T00:00:54;11.13;;;6.10;;
9256;SDS011;4665;51.368;6.782;2022-12-18T00:03:20;9.03;;;6.37;;
9256;SDS011;4665;51.368;6.782;2022-12-18T00:05:49;8.63;;;6.17;;
9256;SDS011;4665;51.368;6.782;2022-12-18T00:08:15;9.67;;;6.47;;
9256;SDS011;4665;51.368;6.782;2022-12-18T00:10:42;9.03;;;6.53;;
9256;SDS011;4665;51.368;6.782;2022-12-18T00:13:07;11.57;;;5.90;;
9256;SDS011;4665;51.368;6.782;2022-12-18T00:15:36;7.10;;;5.60;;
9256;SDS011;4665;51.368;6.782;2022-12-18T00:18:03;9.63;;;6.37;;
9256;SDS011;4665;51.368;6.782;2022-12-18T00:20:29;8.10;;;5.77;;
9256;SDS011;4665;51.368;6.782;2022-12-18T00:22:55;8.53;;;6.23;;
9256;SDS011;4665;51.368;6.782;2022-12-18T00:25:21;8.30;;;5.73;;
9256;SDS011;4665;51.368;6.782;2022-12-18T00:27:46;7.90;;;5.40;;
9256;SDS011;4665;51.368;6.782;2022-12-18T00:30:12;9.50;;;6.10;;
9256;SDS011;4665;51.368;6.782;2022-12-18T00:32:37;7.90;;;5.83;;
9256;SDS011;4665;51.368;6.782;2022-12-18T00:35:03;5.40;;;4.77;;
9256;SDS011;4665;51.368;6.782;2022-12-18T00:37:29;9.50;;;5.70;;
9256;SDS011;4665;51.368;6.782;2022-12-18T00:39:55;8.00;;;5.93;;
9256;SDS011;4665;51.368;6.782;2022-12-18T00:42:20;7.97;;;5.93;;
9256;SDS011;4665;51.368;6.782;2022-12-18T00:45:04;7.27;;;5.27;;
9256;SDS011;4665;51.368;6.782;2022-12-18T00:47:30;8.53;;;5.90;;
9256;SDS011;4665;51.368;6.782;2022-12-18T00:49:55;8.90;;;5.70;;
9256;SDS011;4665;51.368;6.782;2022-12-18T00:52:21;7.70;;;6.03;;
9256;SDS011;4665;51.368;6.782;2022-12-18T00:54:46;8.23;;;5.23;;
9256;SDS011;4665;51.368;6.782;2022-12-18T00:57:12;10.87;;;5.87;;
9256;SDS011;4665;51.368;6.782;2022-12-18T00:59:37;7.37;;;5.50;;
9256;SDS011;4665;51.368;6.782;2022-12-18T01:02:02;6.83;;;5.20;;
9256;SDS011;4665;51.368;6.782;2022-12-18T01:04:30;7.90;;;5.40;;
9256;SDS011;4665;51.368;6.782;2022-12-18T01:06:56;6.87;;;5.53;;
9256;SDS011;4665;51.368;6.782;2022-12-18T01:09:21;7.70;;;5.37;;
9256;SDS011;4665;51.368;6.782;2022-12-18T01:11:47;6.37;;;5.10;;
9256;SDS011;4665;51.368;6.782;2022-12-18T01:14:12;9.40;;;5.70;;
9256;SDS011;4665;51.368;6.782;2022-12-18T01:16:38;7.60;;;5.47;;
9256;SDS011;4665;51.368;6.782;2022-12-18T01:19:03;8.90;;;5.50;;
9256;SDS011;4665;51.368;6.782;2022-12-18T01:21:28;7.97;;;5.67;;
9256;SDS011;4665;51.368;6.782;2022-12-18T01:23:55;8.97;;;5.63;;
9256;SDS011;4665;51.368;6.782;2022-12-18T01:26:21;5.53;;;4.70;;
9256;SDS011;4665;51.368;6.782;2022-12-18T01:28:47;7.33;;;5.93;;
9256;SDS011;4665;51.368;6.782;2022-12-18T01:31:20;9.43;;;5.73;;
9256;SDS011;4665;51.368;6.782;2022-12-18T01:33:47;8.87;;;5.53;;
9256;SDS011;4665;51.368;6.782;2022-12-18T01:36:18;7.67;;;5.00;;
9256;SDS011;4665;51.368;6.782;2022-12-18T01:38:49;9.20;;;6.40;;
9256;SDS011;4665;51.368;6.782;2022-12-18T01:41:16;9.47;;;5.67;;
9256;SDS011;4665;51.368;6.782;2022-12-18T01:43:50;8.50;;;5.70;;
9256;SDS011;4665;51.368;6.782;2022-12-18T01:46:18;8.50;;;5.73;;
9256;SDS011;4665;51.368;6.782;2022-12-18T01:48:46;8.17;;;5.30;;
9256;SDS011;4665;51.368;6.782;2022-12-18T01:51:14;8.23;;;5.33;;
9256;SDS011;4665;51.368;6.782;2022-12-18T01:53:40;6.60;;;4.97;;
9256;SDS011;4665;51.368;6.782;2022-12-18T01:56:07;9.03;;;5.60;;
9256;SDS011;4665;51.368;6.782;2022-12-18T02:01:21;8.13;;;5.63;;
9256;SDS011;4665;51.368;6.782;2022-12-18T02:03:48;7.37;;;5.47;;
9256;SDS011;4665;51.368;6.782;2022-12-18T02:09:03;7.40;;;5.53;;
9256;SDS011;4665;51.368;6.782;2022-12-18T02:14:38;6.93;;;5.50;;
9256;SDS011;4665;51.368;6.782;2022-12-18T02:17:22;8.93;;;5.77;;
9256;SDS011;4665;51.368;6.782;2022-12-18T02:25:13;8.07;;;5.80;;
9256;SDS011;4665;51.368;6.782;2022-12-18T02:27:55;7.33;;;5.20;;
9256;SDS011;4665;51.368;6.782;2022-12-18T02:30:26;10.30;;;5.87;;
9256;SDS011;4665;51.368;6.782;2022-12-18T02:32:55;7.13;;;5.40;;
9256;SDS011;4665;51.368;6.782;2022-12-18T02:35:23;7.30;;;5.30;;
9256;SDS011;4665;51.368;6.782;2022-12-18T02:37:54;8.90;;;5.50;;
9256;SDS011;4665;51.368;6.782;2022-12-18T02:40:20;8.50;;;5.60;;
9256;SDS011;4665;51.368;6.782;2022-12-18T02:42:48;7.23;;;5.63;;
9256;SDS011;4665;51.368;6.782;2022-12-18T02:45:14;9.00;;;6.00;;
9256;SDS011;4665;51.368;6.782;2022-12-18T02:47:40;10.07;;;5.90;;
9256;SDS011;4665;51.368;6.782;2022-12-18T02:50:15;6.07;;;5.30;;
9256;SDS011;4665;51.368;6.782;2022-12-18T02:52:45;7.30;;;5.80;;
9256;SDS011;4665;51.368;6.782;2022-12-18T03:00:48;6.27;;;5.10;;
9256;SDS011;4665;51.368;6.782;2022-12-18T03:03:30;7.47;;;5.43;;
9256;SDS011;4665;51.368;6.782;2022-12-18T03:08:54;7.10;;;5.63;;
9256;SDS011;4665;51.368;6.782;2022-12-18T03:11:23;7.30;;;4.93;;
9256;SDS011;4665;51.368;6.782;2022-12-18T03:14:12;8.13;;;5.47;;
9256;SDS011;4665;51.368;6.782;2022-12-18T03:16:42;6.87;;;5.30;;
9256;SDS011;4665;51.368;6.782;2022-12-18T03:19:11;7.53;;;5.20;;
9256;SDS011;4665;51.368;6.782;2022-12-18T03:21:42;8.97;;;4.83;;
9256;SDS011;4665;51.368;6.782;2022-12-18T03:24:10;8.20;;;5.83;;
9256;SDS011;4665;51.368;6.782;2022-12-18T03:26:36;6.13;;;4.90;;
9256;SDS011;4665;51.368;6.782;2022-12-18T03:29:22;8.63;;;5.63;;
9256;SDS011;4665;51.368;6.782;2022-12-18T03:31:58;8.23;;;5.87;;
9256;SDS011;4665;51.368;6.782;2022-12-18T03:34:30;7.43;;;5.60;;
9256;SDS011;4665;51.368;6.782;2022-12-18T03:36:58;7.53;;;5.17;;
9256;SDS011;4665;51.368;6.782;2022-12-18T03:39:24;7.00;;;5.40;;
9256;SDS011;4665;51.368;6.782;2022-12-18T03:47:27;7.60;;;5.70;;
9256;SDS011;4665;51.368;6.782;2022-12-18T03:53:00;5.23;;;4.70;;
9256;SDS011;4665;51.368;6.782;2022-12-18T03:55:37;6.70;;;4.90;;
9256;SDS011;4665;51.368;6.782;2022-12-18T03:58:03;7.33;;;5.20;;
9256;SDS011;4665;51.368;6.782;2022-12-18T04:00:32;5.70;;;4.77;;
9256;SDS011;4665;51.368;6.782;2022-12-18T04:02:59;5.70;;;4.87;;
9256;SDS011;4665;51.368;6.782;2022-12-18T04:05:27;5.87;;;4.83;;
9256;SDS011;4665;51.368;6.782;2022-12-18T04:07:54;6.97;;;4.83;;
9256;SDS011;4665;51.368;6.782;2022-12-18T04:10:21;7.33;;;5.13;;
9256;SDS011;4665;51.368;6.782;2022-12-18T04:12:47;5.73;;;4.83;;
9256;SDS011;4665;51.368;6.782;2022-12-18T04:15:13;6.30;;;4.73;;
9256;SDS011;4665;51.368;6.782;2022-12-18T04:17:39;7.33;;;4.67;;
9256;SDS011;4665;51.368;6.782;2022-12-18T04:20:12;5.20;;;4.50;;
9256;SDS011;4665;51.368;6.782;2022-12-18T04:22:37;6.33;;;4.90;;
9256;SDS011;4665;51.368;6.782;2022-12-18T04:25:03;7.10;;;4.97;;
9256;SDS011;4665;51.368;6.782;2022-12-18T04:27:28;5.87;;;4.83;;
9256;SDS011;4665;51.368;6.782;2022-12-18T04:29:54;7.03;;;4.73;;
9256;SDS011;4665;51.368;6.782;2022-12-18T04:32:19;5.33;;;4.40;;
9256;SDS011;4665;51.368;6.782;2022-12-18T04:34:45;6.53;;;4.80;;
9256;SDS011;4665;51.368;6.782;2022-12-18T04:37:10;5.40;;;4.53;;
9256;SDS011;4665;51.368;6.782;2022-12-18T04:39:36;6.10;;;4.70;;
9256;SDS011;4665;51.368;6.782;2022-12-18T04:42:01;4.77;;;4.27;;
9256;SDS011;4665;51.368;6.782;2022-12-18T04:44:27;6.67;;;4.90;;
9256;SDS011;4665;51.368;6.782;2022-12-18T04:46:52;6.07;;;4.73;;
9256;SDS011;4665;51.368;6.782;2022-12-18T04:49:18;5.20;;;4.33;;
9256;SDS011;4665;51.368;6.782;2022-12-18T04:51:43;6.43;;;4.53;;
9256;SDS011;4665;51.368;6.782;2022-12-18T04:54:09;6.67;;;4.50;;
9256;SDS011;4665;51.368;6.782;2022-12-18T04:56:34;10.83;;;7.50;;
9256;SDS011;4665;51.368;6.782;2022-12-18T04:58:59;8.67;;;6.17;;
9256;SDS011;4665;51.368;6.782;2022-12-18T05:01:25;9.53;;;6.27;;
9256;SDS011;4665;51.368;6.782;2022-12-18T05:03:51;8.77;;;5.10;;
9256;SDS011;4665;51.368;6.782;2022-12-18T05:06:16;7.67;;;5.13;;
9256;SDS011;4665;51.368;6.782;2022-12-18T05:08:42;7.00;;;4.73;;
9256;SDS011;4665;51.368;6.782;2022-12-18T05:11:09;7.30;;;5.33;;
9256;SDS011;4665;51.368;6.782;2022-12-18T05:13:36;6.60;;;4.97;;
9256;SDS011;4665;51.368;6.782;2022-12-18T05:16:03;6.50;;;4.97;;
9256;SDS011;4665;51.368;6.782;2022-12-18T05:18:29;6.47;;;4.87;;
9256;SDS011;4665;51.368;6.782;2022-12-18T05:20:54;7.07;;;5.10;;
9256;SDS011;4665;51.368;6.782;2022-12-18T05:23:21;7.77;;;4.77;;
9256;SDS011;4665;51.368;6.782;2022-12-18T05:26:06;7.77;;;5.00;;
9256;SDS011;4665;51.368;6.782;2022-12-18T05:28:33;8.60;;;5.00;;
9256;SDS011;4665;51.368;6.782;2022-12-18T05:31:00;6.20;;;5.00;;
9256;SDS011;4665;51.368;6.782;2022-12-18T05:33:28;6.07;;;4.47;;
9256;SDS011;4665;51.368;6.782;2022-12-18T05:35:57;5.97;;;4.40;;
9256;SDS011;4665;51.368;6.782;2022-12-18T05:38:27;5.90;;;4.70;;
9256;SDS011;4665;51.368;6.782;2022-12-18T05:40:53;6.03;;;4.80;;
9256;SDS011;4665;51.368;6.782;2022-12-18T05:43:19;7.00;;;4.83;;
9256;SDS011;4665;51.368;6.782;2022-12-18T05:45:46;4.70;;;4.13;;
9256;SDS011;4665;51.368;6.782;2022-12-18T05:48:12;7.07;;;4.83;;
9256;SDS011;4665;51.368;6.782;2022-12-18T05:50:38;6.10;;;5.03;;
9256;SDS011;4665;51.368;6.782;2022-12-18T05:53:05;5.00;;;4.50;;
9256;SDS011;4665;51.368;6.782;2022-12-18T05:55:34;5.90;;;4.73;;
9256;SDS011;4665;51.368;6.782;2022-12-18T05:58:01;6.07;;;4.33;;
9256;SDS011;4665;51.368;6.782;2022-12-18T06:00:28;5.37;;;4.20;;
9256;SDS011;4665;51.368;6.782;2022-12-18T06:02:55;6.23;;;4.63;;
9256;SDS011;4665;51.368;6.782;2022-12-18T06:05:20;5.77;;;4.60;;
9256;SDS011;4665;51.368;6.782;2022-12-18T06:07:46;5.83;;;4.70;;
9256;SDS011;4665;51.368;6.782;2022-12-18T06:10:11;6.93;;;4.53;;
9256;SDS011;4665;51.368;6.782;2022-12-18T06:12:37;5.77;;;4.50;;
9256;SDS011;4665;51.368;6.782;2022-12-18T06:15:04;6.77;;;4.97;;
9256;SDS011;4665;51.368;6.782;2022-12-18T06:17:30;5.37;;;4.60;;
9256;SDS011;4665;51.368;6.782;2022-12-18T06:19:57;6.77;;;4.50;;
9256;SDS011;4665;51.368;6.782;2022-12-18T06:22:23;5.53;;;4.13;;
9256;SDS011;4665;51.368;6.782;2022-12-18T06:24:48;6.53;;;4.90;;
9256;SDS011;4665;51.368;6.782;2022-12-18T06:27:14;5.17;;;4.30;;
9256;SDS011;4665;51.368;6.782;2022-12-18T06:29:39;6.43;;;4.63;;
9256;SDS011;4665;51.368;6.782;2022-12-18T06:32:05;6.60;;;4.77;;
9256;SDS011;4665;51.368;6.782;2022-12-18T06:34:31;6.50;;;4.10;;
9256;SDS011;4665;51.368;6.782;2022-12-18T06:36:57;4.90;;;4.33;;
9256;SDS011;4665;51.368;6.782;2022-12-18T06:39:23;5.57;;;4.30;;
9256;SDS011;4665;51.368;6.782;2022-12-18T06:41:48;5.97;;;4.20;;
9256;SDS011;4665;51.368;6.782;2022-12-18T06:44:14;5.93;;;4.60;;
9256;SDS011;4665;51.368;6.782;2022-12-18T06:46:39;6.73;;;4.60;;
9256;SDS011;4665;51.368;6.782;2022-12-18T06:49:04;5.53;;;4.40;;
9256;SDS011;4665;51.368;6.782;2022-12-18T06:51:30;5.23;;;3.77;;
9256;SDS011;4665;51.368;6.782;2022-12-18T06:53:55;6.23;;;4.70;;
9256;SDS011;4665;51.368;6.782;2022-12-18T06:56:21;5.70;;;4.10;;
9256;SDS011;4665;51.368;6.782;2022-12-18T06:58:47;5.03;;;4.17;;
9256;SDS011;4665;51.368;6.782;2022-12-18T07:01:12;4.97;;;3.80;;
9256;SDS011;4665;51.368;6.782;2022-12-18T07:03:39;6.80;;;4.37;;
9256;SDS011;4665;51.368;6.782;2022-12-18T07:06:06;7.23;;;4.73;;
9256;SDS011;4665;51.368;6.782;2022-12-18T07:08:40;6.37;;;4.67;;
9256;SDS011;4665;51.368;6.782;2022-12-18T07:11:05;6.40;;;4.37;;
9256;SDS011;4665;51.368;6.782;2022-12-18T07:13:31;5.27;;;4.40;;
9256;SDS011;4665;51.368;6.782;2022-12-18T07:16:03;5.27;;;4.17;;
9256;SDS011;4665;51.368;6.782;2022-12-18T07:18:33;9.37;;;4.47;;
9256;SDS011;4665;51.368;6.782;2022-12-18T07:20:59;5.07;;;3.93;;
9256;SDS011;4665;51.368;6.782;2022-12-18T07:23:28;8.07;;;5.60;;
9256;SDS011;4665;51.368;6.782;2022-12-18T07:25:53;9.53;;;5.23;;
9256;SDS011;4665;51.368;6.782;2022-12-18T07:28:19;8.23;;;5.30;;
9256;SDS011;4665;51.368;6.782;2022-12-18T07:30:44;7.87;;;5.40;;
9256;SDS011;4665;51.368;6.782;2022-12-18T07:33:09;8.37;;;5.83;;
9256;SDS011;4665;51.368;6.782;2022-12-18T07:35:35;11.60;;;6.50;;
9256;SDS011;4665;51.368;6.782;2022-12-18T07:38:00;8.03;;;5.90;;
9256;SDS011;4665;51.368;6.782;2022-12-18T07:40:26;7.13;;;5.67;;
9256;SDS011;4665;51.368;6.782;2022-12-18T07:42:51;7.60;;;5.40;;
9256;SDS011;4665;51.368;6.782;2022-12-18T07:45:16;9.27;;;5.70;;
9256;SDS011;4665;51.368;6.782;2022-12-18T07:47:42;7.30;;;5.80;;
9256;SDS011;4665;51.368;6.782;2022-12-18T07:50:07;10.27;;;5.73;;
9256;SDS011;4665;51.368;6.782;2022-12-18T07:52:33;6.90;;;5.00;;
9256;SDS011;4665;51.368;6.782;2022-12-18T07:54:58;8.60;;;5.83;;
9256;SDS011;4665;51.368;6.782;2022-12-18T07:57:24;10.97;;;5.90;;
9256;SDS011;4665;51.368;6.782;2022-12-18T07:59:49;6.50;;;5.37;;
9256;SDS011;4665;51.368;6.782;2022-12-18T08:02:15;7.00;;;5.57;;
9256;SDS011;4665;51.368;6.782;2022-12-18T08:04:40;8.03;;;5.37;;
9256;SDS011;4665;51.368;6.782;2022-12-18T08:07:05;7.20;;;4.93;;
9256;SDS011;4665;51.368;6.782;2022-12-18T08:09:31;8.07;;;5.37;;
9256;SDS011;4665;51.368;6.782;2022-12-18T08:11:56;7.37;;;5.73;;
9256;SDS011;4665;51.368;6.782;2022-12-18T08:14:22;7.30;;;5.23;;
9256;SDS011;4665;51.368;6.782;2022-12-18T08:16:47;7.87;;;5.50;;
9256;SDS011;4665;51.368;6.782;2022-12-18T08:19:13;6.00;;;5.03;;
9256;SDS011;4665;51.368;6.782;2022-12-18T08:21:41;7.53;;;5.33;;
9256;SDS011;4665;51.368;6.782;2022-12-18T08:24:08;5.70;;;4.97;;
9256;SDS011;4665;51.368;6.782;2022-12-18T08:26:34;7.37;;;5.33;;
9256;SDS011;4665;51.368;6.782;2022-12-18T08:28:59;6.30;;;4.67;;
9256;SDS011;4665;51.368;6.782;2022-12-18T08:31:26;7.50;;;5.03;;
9256;SDS011;4665;51.368;6.782;2022-12-18T08:33:53;7.20;;;5.50;;
9256;SDS011;4665;51.368;6.782;2022-12-18T08:36:19;6.30;;;5.17;;
9256;SDS011;4665;51.368;6.782;2022-12-18T08:38:45;8.73;;;5.70;;
9256;SDS011;4665;51.368;6.782;2022-12-18T08:41:12;8.03;;;5.40;;
9256;SDS011;4665;51.368;6.782;2022-12-18T08:43:39;6.90;;;5.30;;
9256;SDS011;4665;51.368;6.782;2022-12-18T08:46:24;7.73;;;5.60;;
9256;SDS011;4665;51.368;6.782;2022-12-18T08:48:51;8.53;;;5.70;;
9256;SDS011;4665;51.368;6.782;2022-12-18T08:51:19;8.27;;;5.60;;
9256;SDS011;4665;51.368;6.782;2022-12-18T08:53:45;6.83;;;5.33;;
9256;SDS011;4665;51.368;6.782;2022-12-18T08:56:11;5.10;;;4.60;;
9256;SDS011;4665;51.368;6.782;2022-12-18T08:58:38;7.33;;;5.27;;
9256;SDS011;4665;51.368;6.782;2022-12-18T09:01:04;8.13;;;5.53;;
9256;SDS011;4665;51.368;6.782;2022-12-18T09:03:30;7.57;;;5.30;;
9256;SDS011;4665;51.368;6.782;2022-12-18T09:05:59;6.47;;;4.87;;
9256;SDS011;4665;51.368;6.782;2022-12-18T09:08:26;8.30;;;4.93;;
9256;SDS011;4665;51.368;6.782;2022-12-18T09:10:53;7.03;;;5.20;;
9256;SDS011;4665;51.368;6.782;2022-12-18T09:13:26;6.30;;;4.83;;
9256;SDS011;4665;51.368;6.782;2022-12-18T09:15:55;9.27;;;5.30;;
9256;SDS011;4665;51.368;6.782;2022-12-18T09:18:21;5.63;;;4.70;;
9256;SDS011;4665;51.368;6.782;2022-12-18T09:20:48;6.43;;;4.83;;
9256;SDS011;4665;51.368;6.782;2022-12-18T09:23:15;6.87;;;5.40;;
9256;SDS011;4665;51.368;6.782;2022-12-18T09:25:40;6.30;;;5.10;;
9256;SDS011;4665;51.368;6.782;2022-12-18T09:28:09;6.57;;;4.70;;
9256;SDS011;4665;51.368;6.782;2022-12-18T09:30:37;5.67;;;4.77;;
9256;SDS011;4665;51.368;6.782;2022-12-18T09:33:04;7.40;;;5.10;;
9256;SDS011;4665;51.368;6.782;2022-12-18T09:35:32;7.83;;;5.40;;
9256;SDS011;4665;51.368;6.782;2022-12-18T09:38:03;7.70;;;5.10;;
9256;SDS011;4665;51.368;6.782;2022-12-18T09:40:32;7.30;;;5.17;;
9256;SDS011;4665;51.368;6.782;2022-12-18T09:43:06;7.37;;;5.03;;
9256;SDS011;4665;51.368;6.782;2022-12-18T09:45:59;7.27;;;5.17;;
9256;SDS011;4665;51.368;6.782;2022-12-18T09:48:38;6.97;;;5.20;;
9256;SDS011;4665;51.368;6.782;2022-12-18T09:51:18;6.77;;;4.60;;
9256;SDS011;4665;51.368;6.782;2022-12-18T09:53:50;7.23;;;5.43;;
9256;SDS011;4665;51.368;6.782;2022-12-18T09:56:23;8.63;;;5.47;;
9256;SDS011;4665;51.368;6.782;2022-12-18T09:59:03;5.47;;;4.63;;
9256;SDS011;4665;51.368;6.782;2022-12-18T10:05:01;7.17;;;5.13;;
9256;SDS011;4665;51.368;6.782;2022-12-18T10:10:27;7.40;;;4.77;;
9256;SDS011;4665;51.368;6.782;2022-12-18T10:13:08;6.93;;;4.90;;
9256;SDS011;4665;51.368;6.782;2022-12-18T10:15:40;6.27;;;4.87;;
9256;SDS011;4665;51.368;6.782;2022-12-18T10:21:10;6.33;;;4.60;;
9256;SDS011;4665;51.368;6.782;2022-12-18T10:26:27;6.60;;;4.37;;
9256;SDS011;4665;51.368;6.782;2022-12-18T10:28:52;7.17;;;5.33;;
9256;SDS011;4665;51.368;6.782;2022-12-18T10:31:20;7.00;;;5.10;;
9256;SDS011;4665;51.368;6.782;2022-12-18T10:33:47;6.57;;;5.20;;
9256;SDS011;4665;51.368;6.782;2022-12-18T10:36:13;6.23;;;5.03;;
9256;SDS011;4665;51.368;6.782;2022-12-18T10:38:42;7.67;;;5.40;;
9256;SDS011;4665;51.368;6.782;2022-12-18T10:46:54;7.43;;;5.00;;
9256;SDS011;4665;51.368;6.782;2022-12-18T10:49:29;6.73;;;5.10;;
9256;SDS011;4665;51.368;6.782;2022-12-18T10:54:46;6.53;;;4.83;;
9256;SDS011;4665;51.368;6.782;2022-12-18T10:57:17;6.30;;;5.13;;
9256;SDS011;4665;51.368;6.782;2022-12-18T10:59:55;6.27;;;4.97;;
9256;SDS011;4665;51.368;6.782;2022-12-18T11:02:44;6.87;;;4.47;;
9256;SDS011;4665;51.368;6.782;2022-12-18T11:07:58;6.50;;;4.83;;
9256;SDS011;4665;51.368;6.782;2022-12-18T11:10:37;7.20;;;5.07;;
9256;SDS011;4665;51.368;6.782;2022-12-18T11:13:09;6.00;;;5.03;;
9256;SDS011;4665;51.368;6.782;2022-12-18T11:15:42;6.20;;;4.60;;
9256;SDS011;4665;51.368;6.782;2022-12-18T11:18:15;5.23;;;4.63;;
9256;SDS011;4665;51.368;6.782;2022-12-18T11:20:43;6.13;;;4.87;;
9256;SDS011;4665;51.368;6.782;2022-12-18T11:23:16;6.40;;;4.50;;
9256;SDS011;4665;51.368;6.782;2022-12-18T11:25:50;6.13;;;4.97;;
9256;SDS011;4665;51.368;6.782;2022-12-18T11:28:26;6.40;;;5.10;;
9256;SDS011;4665;51.368;6.782;2022-12-18T11:33:44;7.07;;;4.77;;
9256;SDS011;4665;51.368;6.782;2022-12-18T11:36:14;7.37;;;5.40;;
9256;SDS011;4665;51.368;6.782;2022-12-18T11:38:40;7.20;;;5.43;;
9256;SDS011;4665;51.368;6.782;2022-12-18T11:41:18;6.13;;;4.97;;
9256;SDS011;4665;51.368;6.782;2022-12-18T11:44:09;7.40;;;4.90;;
9256;SDS011;4665;51.368;6.782;2022-12-18T11:46:41;7.10;;;4.87;;
9256;SDS011;4665;51.368;6.782;2022-12-18T11:49:33;6.97;;;5.53;;
9256;SDS011;4665;51.368;6.782;2022-12-18T11:54:41;8.57;;;5.37;;
9256;SDS011;4665;51.368;6.782;2022-12-18T11:57:10;6.40;;;4.90;;
9256;SDS011;4665;51.368;6.782;2022-12-18T11:59:56;6.50;;;5.70;;
9256;SDS011;4665;51.368;6.782;2022-12-18T12:13:59;8.00;;;5.67;;
9256;SDS011;4665;51.368;6.782;2022-12-18T12:16:29;7.70;;;5.80;;
9256;SDS011;4665;51.368;6.782;2022-12-18T12:19:11;7.90;;;5.77;;
9256;SDS011;4665;51.368;6.782;2022-12-18T12:28:08;7.53;;;6.20;;
9256;SDS011;4665;51.368;6.782;2022-12-18T12:33:46;8.63;;;5.63;;
9256;SDS011;4665;51.368;6.782;2022-12-18T12:39:01;8.60;;;6.20;;
9256;SDS011;4665;51.368;6.782;2022-12-18T12:41:31;8.80;;;6.40;;
9256;SDS011;4665;51.368;6.782;2022-12-18T12:44:25;8.50;;;6.40;;
9256;SDS011;4665;51.368;6.782;2022-12-18T12:46:57;7.23;;;6.07;;
9256;SDS011;4665;51.368;6.782;2022-12-18T12:49:29;8.20;;;6.17;;
9256;SDS011;4665;51.368;6.782;2022-12-18T12:52:00;8.70;;;6.47;;
9256;SDS011;4665;51.368;6.782;2022-12-18T12:54:31;7.97;;;6.40;;
9256;SDS011;4665;51.368;6.782;2022-12-18T12:57:04;7.33;;;6.20;;
9256;SDS011;4665;51.368;6.782;2022-12-18T12:59:56;9.00;;;6.33;;
9256;SDS011;4665;51.368;6.782;2022-12-18T13:02:29;8.23;;;6.43;;
9256;SDS011;4665;51.368;6.782;2022-12-18T13:05:16;9.10;;;6.20;;
9256;SDS011;4665;51.368;6.782;2022-12-18T13:07:59;8.27;;;6.67;;
9256;SDS011;4665;51.368;6.782;2022-12-18T13:13:12;9.47;;;6.80;;
9256;SDS011;4665;51.368;6.782;2022-12-18T13:15:43;8.60;;;6.60;;
9256;SDS011;4665;51.368;6.782;2022-12-18T13:18:11;8.63;;;7.23;;
9256;SDS011;4665;51.368;6.782;2022-12-18T13:20:44;11.07;;;7.43;;
9256;SDS011;4665;51.368;6.782;2022-12-18T13:23:26;9.47;;;7.23;;
9256;SDS011;4665;51.368;6.782;2022-12-18T13:30:58;10.03;;;7.67;;
9256;SDS011;4665;51.368;6.782;2022-12-18T13:36:00;8.97;;;6.77;;
9256;SDS011;4665;51.368;6.782;2022-12-18T13:38:34;11.07;;;7.93;;
9256;SDS011;4665;51.368;6.782;2022-12-18T13:41:10;10.23;;;7.13;;
9256;SDS011;4665;51.368;6.782;2022-12-18T13:43:49;10.97;;;7.97;;
9256;SDS011;4665;51.368;6.782;2022-12-18T13:46:23;12.10;;;8.17;;
9256;SDS011;4665;51.368;6.782;2022-12-18T13:51:46;9.60;;;7.57;;
9256;SDS011;4665;51.368;6.782;2022-12-18T13:56:50;10.50;;;7.97;;
9256;SDS011;4665;51.368;6.782;2022-12-18T13:59:20;9.53;;;7.00;;
9256;SDS011;4665;51.368;6.782;2022-12-18T14:06:56;10.43;;;7.60;;
9256;SDS011;4665;51.368;6.782;2022-12-18T14:09:28;9.93;;;7.77;;
9256;SDS011;4665;51.368;6.782;2022-12-18T14:11:56;11.73;;;8.40;;
9256;SDS011;4665;51.368;6.782;2022-12-18T14:14:43;13.10;;;7.97;;
9256;SDS011;4665;51.368;6.782;2022-12-18T14:17:12;10.93;;;8.40;;
9256;SDS011;4665;51.368;6.782;2022-12-18T14:19:41;10.30;;;7.83;;
9256;SDS011;4665;51.368;6.782;2022-12-18T14:22:20;12.20;;;9.23;;
9256;SDS011;4665;51.368;6.782;2022-12-18T14:25:10;12.40;;;8.67;;
9256;SDS011;4665;51.368;6.782;2022-12-18T14:27:42;12.37;;;8.50;;
9256;SDS011;4665;51.368;6.782;2022-12-18T14:30:22;14.50;;;9.23;;
9256;SDS011;4665;51.368;6.782;2022-12-18T14:33:02;14.03;;;8.43;;
9256;SDS011;4665;51.368;6.782;2022-12-18T14:35:29;11.43;;;8.43;;
9256;SDS011;4665;51.368;6.782;2022-12-18T14:38:08;11.13;;;8.27;;
9256;SDS011;4665;51.368;6.782;2022-12-18T14:41:04;11.03;;;8.33;;
9256;SDS011;4665;51.368;6.782;2022-12-18T14:43:38;13.67;;;8.83;;
9256;SDS011;4665;51.368;6.782;2022-12-18T14:48:52;12.57;;;9.17;;
9256;SDS011;4665;51.368;6.782;2022-12-18T14:51:18;11.07;;;8.73;;
9256;SDS011;4665;51.368;6.782;2022-12-18T14:53:47;13.97;;;9.37;;
9256;SDS011;4665;51.368;6.782;2022-12-18T14:56:24;15.17;;;9.07;;
9256;SDS011;4665;51.368;6.782;2022-12-18T14:59:00;11.63;;;8.60;;
9256;SDS011;4665;51.368;6.782;2022-12-18T15:02:25;12.07;;;9.03;;
9256;SDS011;4665;51.368;6.782;2022-12-18T15:04:37;11.73;;;9.00;;
9256;SDS011;4665;51.368;6.782;2022-12-18T15:10:01;13.60;;;9.60;;
9256;SDS011;4665;51.368;6.782;2022-12-18T15:12:35;13.97;;;9.47;;
9256;SDS011;4665;51.368;6.782;2022-12-18T15:15:43;14.93;;;9.80;;
9256;SDS011;4665;51.368;6.782;2022-12-18T15:23:26;13.10;;;9.17;;
9256;SDS011;4665;51.368;6.782;2022-12-18T15:25:58;13.40;;;9.17;;
9256;SDS011;4665;51.368;6.782;2022-12-18T15:28:31;16.23;;;9.67;;
9256;SDS011;4665;51.368;6.782;2022-12-18T15:30:57;13.13;;;9.27;;
9256;SDS011;4665;51.368;6.782;2022-12-18T15:33:35;13.53;;;9.53;;
9256;SDS011;4665;51.368;6.782;2022-12-18T15:36:09;14.23;;;9.17;;
9256;SDS011;4665;51.368;6.782;2022-12-18T15:38:36;13.80;;;10.13;;
9256;SDS011;4665;51.368;6.782;2022-12-18T15:41:02;13.27;;;9.47;;
9256;SDS011;4665;51.368;6.782;2022-12-18T15:43:28;14.40;;;9.63;;
9256;SDS011;4665;51.368;6.782;2022-12-18T15:46:00;15.87;;;9.67;;
9256;SDS011;4665;51.368;6.782;2022-12-18T15:48:26;14.57;;;9.40;;
9256;SDS011;4665;51.368;6.782;2022-12-18T15:50:53;12.97;;;9.43;;
9256;SDS011;4665;51.368;6.782;2022-12-18T15:53:21;14.17;;;9.77;;
9256;SDS011;4665;51.368;6.782;2022-12-18T15:55:47;12.67;;;8.87;;
9256;SDS011;4665;51.368;6.782;2022-12-18T15:58:31;14.90;;;10.60;;
9256;SDS011;4665;51.368;6.782;2022-12-18T16:00:58;14.20;;;10.27;;
9256;SDS011;4665;51.368;6.782;2022-12-18T16:03:25;12.97;;;9.50;;
9256;SDS011;4665;51.368;6.782;2022-12-18T16:05:50;14.97;;;10.10;;
9256;SDS011;4665;51.368;6.782;2022-12-18T16:08:16;13.77;;;9.70;;
9256;SDS011;4665;51.368;6.782;2022-12-18T16:10:41;14.93;;;10.33;;
9256;SDS011;4665;51.368;6.782;2022-12-18T16:13:09;16.93;;;10.90;;
9256;SDS011;4665;51.368;6.782;2022-12-18T16:15:36;16.60;;;10.87;;
9256;SDS011;4665;51.368;6.782;2022-12-18T16:18:02;15.43;;;10.80;;
9256;SDS011;4665;51.368;6.782;2022-12-18T16:20:27;15.03;;;10.13;;
9256;SDS011;4665;51.368;6.782;2022-12-18T16:22:52;14.77;;;10.50;;
9256;SDS011;4665;51.368;6.782;2022-12-18T16:25:24;17.13;;;11.30;;
9256;SDS011;4665;51.368;6.782;2022-12-18T16:27:52;15.10;;;10.83;;
9256;SDS011;4665;51.368;6.782;2022-12-18T16:30:21;15.13;;;10.70;;
9256;SDS011;4665;51.368;6.782;2022-12-18T16:32:48;15.23;;;10.43;;
9256;SDS011;4665;51.368;6.782;2022-12-18T16:35:15;16.73;;;10.90;;
9256;SDS011;4665;51.368;6.782;2022-12-18T16:37:41;16.20;;;11.23;;
9256;SDS011;4665;51.368;6.782;2022-12-18T16:40:08;16.00;;;11.27;;
9256;SDS011;4665;51.368;6.782;2022-12-18T16:42:37;16.73;;;11.43;;
9256;SDS011;4665;51.368;6.782;2022-12-18T16:45:04;19.80;;;11.33;;
9256;SDS011;4665;51.368;6.782;2022-12-18T16:47:31;17.20;;;11.30;;
9256;SDS011;4665;51.368;6.782;2022-12-18T16:49:57;15.23;;;11.33;;
9256;SDS011;4665;51.368;6.782;2022-12-18T16:52:22;16.17;;;11.37;;
9256;SDS011;4665;51.368;6.782;2022-12-18T16:54:48;15.67;;;10.70;;
9256;SDS011;4665;51.368;6.782;2022-12-18T16:57:14;15.70;;;11.60;;
9256;SDS011;4665;51.368;6.782;2022-12-18T16:59:41;17.60;;;12.17;;
9256;SDS011;4665;51.368;6.782;2022-12-18T17:02:25;19.00;;;11.63;;
9256;SDS011;4665;51.368;6.782;2022-12-18T17:04:55;15.93;;;11.27;;
9256;SDS011;4665;51.368;6.782;2022-12-18T17:07:21;16.57;;;11.87;;
9256;SDS011;4665;51.368;6.782;2022-12-18T17:09:50;17.07;;;11.63;;
9256;SDS011;4665;51.368;6.782;2022-12-18T17:12:17;20.47;;;12.83;;
9256;SDS011;4665;51.368;6.782;2022-12-18T17:14:43;17.73;;;12.20;;
9256;SDS011;4665;51.368;6.782;2022-12-18T17:17:09;19.13;;;12.97;;
9256;SDS011;4665;51.368;6.782;2022-12-18T17:19:34;19.83;;;12.73;;